Time;durP1;ratioP1;P1;durP2;ratioP2;P2;SDS_P1;SDS_P2;PMS_P1;PMS_P2;Temp;Humidity;BMP_temperature;BMP_pressure;BME280_temperature;BME280_humidity;BME280_pressure;Samples;Min_cycle;Max_cycle;Signal;HPM_P1;HPM_P2
2023/12/26 00:02:09;;;;;;;0.52;0.52;;;;;;;8.59;100.00;99244.34;10502613;28;20068;-83
2023/12/26 00:07:12;;;;;;;0.20;0.20;;;;;;;8.45;100.00;99227.78;10472417;28;20666;-82
2023/12/26 00:12:16;;;;;;;0.95;0.50;;;;;;;8.71;100.00;99246.88;10491718;28;20057;-84
2023/12/26 00:17:20;;;;;;;0.65;0.65;;;;;;;8.74;100.00;99223.34;10499041;28;20059;-82
2023/12/26 00:22:23;;;;;;;0.50;0.50;;;;;;;8.53;100.00;99209.25;10480208;28;20579;-83
2023/12/26 00:27:26;;;;;;;1.27;1.17;;;;;;;8.57;100.00;99214.19;10498610;28;20037;-84
2023/12/26 00:32:31;;;;;;;0.95;0.95;;;;;;;8.53;100.00;99206.56;10492222;28;20056;-84
2023/12/26 00:38:07;;;;;;;1.40;1.30;;;;;;;8.42;100.00;99225.41;10497357;28;20037;-81
2023/12/26 00:43:10;;;;;;;0.68;0.68;;;;;;;8.44;100.00;99226.13;10468249;28;20056;-84
2023/12/26 00:48:15;;;;;;;0.57;0.57;;;;;;;8.33;100.00;99194.97;10496486;28;20050;-83
2023/12/26 00:53:18;;;;;;;0.90;0.90;;;;;;;8.38;100.00;99190.06;10471740;28;20519;-84
2023/12/26 00:58:21;;;;;;;1.13;1.02;;;;;;;8.31;100.00;99207.63;10482083;28;20570;-83
2023/12/26 01:03:25;;;;;;;1.08;1.08;;;;;;;8.46;100.00;99194.75;10480401;28;20049;-83
2023/12/26 01:08:29;;;;;;;1.38;1.38;;;;;;;8.58;100.00;99194.50;10494375;28;20034;-84
2023/12/26 01:13:34;;;;;;;1.58;1.48;;;;;;;8.37;100.00;99193.72;10503451;28;20025;-87
2023/12/26 01:18:39;;;;;;;1.70;1.60;;;;;;;8.70;100.00;99199.69;10529595;28;20044;-85
2023/12/26 01:23:42;;;;;;;1.50;1.40;;;;;;;8.53;100.00;99212.78;10495268;28;20053;-87
2023/12/26 01:28:45;;;;;;;0.90;0.90;;;;;;;8.49;100.00;99203.34;10504669;28;20052;-83
2023/12/26 01:33:51;;;;;;;1.02;0.80;;;;;;;8.34;100.00;99218.94;10507683;28;20052;-83
2023/12/26 01:38:56;;;;;;;2.05;0.80;;;;;;;8.21;100.00;99218.34;10454229;28;20068;-83
2023/12/26 01:43:59;;;;;;;0.73;0.73;;;;;;;8.17;100.00;99239.19;10506260;28;20044;-84
2023/12/26 01:49:04;;;;;;;0.80;0.80;;;;;;;8.28;100.00;99232.00;10500190;28;20532;-82
2023/12/26 01:54:07;;;;;;;0.63;0.63;;;;;;;8.30;100.00;99232.72;10509454;28;20697;-82
2023/12/26 01:59:11;;;;;;;0.70;0.65;;;;;;;8.20;100.00;99219.34;10486738;28;20060;-80
2023/12/26 02:04:15;;;;;;;2.10;0.77;;;;;;;8.08;100.00;99197.19;10520028;28;20058;-83
2023/12/26 02:09:18;;;;;;;1.20;1.20;;;;;;;8.43;100.00;99241.34;10500531;28;20069;-83
2023/12/26 02:14:22;;;;;;;1.10;0.95;;;;;;;7.98;100.00;99257.84;10486459;28;20045;-82
2023/12/26 02:19:27;;;;;;;0.98;0.98;;;;;;;7.94;100.00;99259.06;10510616;28;20048;-83
2023/12/26 02:24:31;;;;;;;1.60;1.50;;;;;;;8.10;100.00;99240.69;10456846;28;20028;-80
2023/12/26 02:29:34;;;;;;;2.03;1.83;;;;;;;8.43;100.00;99238.66;10506979;28;20048;-83
2023/12/26 02:34:38;;;;;;;1.25;1.25;;;;;;;8.39;100.00;99261.31;10479223;28;20147;-82
2023/12/26 02:39:44;;;;;;;0.85;0.85;;;;;;;8.07;100.00;99257.03;10472952;28;20041;-83
2023/12/26 02:44:49;;;;;;;1.25;0.65;;;;;;;8.07;100.00;99275.75;10482824;28;20068;-81
2023/12/26 02:49:52;;;;;;;1.88;0.88;;;;;;;7.95;100.00;99307.09;10497908;28;20041;-81
2023/12/26 02:54:56;;;;;;;0.70;0.70;;;;;;;8.04;100.00;99275.19;10482616;28;20151;-81
2023/12/26 02:59:59;;;;;;;0.80;0.80;;;;;;;8.10;100.00;99304.06;10470961;28;20573;-81
2023/12/26 03:05:03;;;;;;;0.80;0.80;;;;;;;7.98;100.00;99276.56;10482848;28;20072;-81
2023/12/26 03:10:09;;;;;;;1.35;0.70;;;;;;;8.02;100.00;99267.28;10463935;28;20049;-83
2023/12/26 03:15:12;;;;;;;1.48;0.50;;;;;;;7.97;100.00;99242.75;10465074;28;20045;-81
2023/12/26 03:20:15;;;;;;;0.20;0.20;;;;;;;7.87;100.00;99252.56;10484552;28;20044;-80
2023/12/26 03:25:20;;;;;;;0.60;0.60;;;;;;;8.10;100.00;99264.75;10465796;28;20143;-83
2023/12/26 03:30:23;;;;;;;0.55;0.55;;;;;;;8.09;100.00;99268.44;10468113;28;20060;-84
2023/12/26 03:35:27;;;;;;;0.90;0.90;;;;;;;7.97;100.00;99269.50;10474265;28;20504;-83
2023/12/26 03:40:31;;;;;;;0.93;0.93;;;;;;;7.97;100.00;99298.91;10452990;28;20076;-84
2023/12/26 03:45:34;;;;;;;1.50;1.40;;;;;;;8.12;100.00;99281.53;10452166;28;20114;-82
2023/12/26 03:50:39;;;;;;;1.60;1.50;;;;;;;8.09;100.00;99249.72;10435416;28;20052;-82
2023/12/26 03:55:43;;;;;;;1.27;1.20;;;;;;;8.12;100.00;99249.44;10443848;28;20037;-82
2023/12/26 04:00:46;;;;;;;1.70;1.60;;;;;;;8.14;100.00;99284.91;10451232;28;20519;-81
2023/12/26 04:05:49;;;;;;;1.30;1.20;;;;;;;8.35;100.00;99273.28;10453029;28;20135;-81
2023/12/26 04:10:54;;;;;;;1.65;1.55;;;;;;;8.48;100.00;99279.28;10485208;28;20045;-80
2023/12/26 04:15:57;;;;;;;0.75;0.75;;;;;;;8.12;100.00;99294.06;10465098;28;20044;-82
2023/12/26 04:21:01;;;;;;;1.05;1.05;;;;;;;8.06;100.00;99343.56;10478531;28;20075;-82
2023/12/26 04:26:07;;;;;;;1.70;1.60;;;;;;;8.23;100.00;99320.72;10437580;28;20390;-83
2023/12/26 04:31:10;;;;;;;1.48;1.48;;;;;;;7.97;100.00;99335.50;10459632;28;20147;-84
2023/12/26 04:36:13;;;;;;;0.80;0.80;;;;;;;8.02;100.00;99350.19;10502993;28;20080;-83
2023/12/26 04:41:18;;;;;;;1.45;0.30;;;;;;;7.77;100.00;99372.00;10485607;28;20064;-85
2023/12/26 04:46:21;;;;;;;0.30;0.30;;;;;;;7.91;100.00;99369.81;10481916;28;20117;-84
2023/12/26 04:51:28;;;;;;;1.77;0.43;;;;;;;8.36;100.00;99388.22;10454351;28;20108;-82
2023/12/26 04:56:33;;;;;;;1.67;0.63;;;;;;;7.54;100.00;99396.16;10478649;28;20079;-82
2023/12/26 05:01:41;;;;;;;2.17;0.40;;;;;;;7.46;100.00;99387.94;10480090;28;20116;-83
2023/12/26 05:06:45;;;;;;;1.05;0.88;;;;;;;7.53;100.00;99394.47;10463541;28;20052;-82
2023/12/26 05:11:49;;;;;;;3.97;0.32;;;;;;;7.24;100.00;99388.88;10457522;28;20048;-81
2023/12/26 05:16:53;;;;;;;4.55;0.70;;;;;;;7.02;100.00;99395.13;10467579;28;20037;-81
2023/12/26 05:21:57;;;;;;;1.02;0.40;;;;;;;6.93;100.00;99420.78;10462155;28;20527;-80
2023/12/26 05:27:03;;;;;;;5.70;1.15;;;;;;;7.03;100.00;99436.91;10463689;28;20101;-80
2023/12/26 05:32:07;;;;;;;1.75;0.70;;;;;;;7.23;100.00;99446.78;10457253;28;20137;-79
2023/12/26 05:37:10;;;;;;;1.98;0.60;;;;;;;7.36;100.00;99459.16;10453652;28;20040;-80
2023/12/26 05:42:17;;;;;;;3.35;0.85;;;;;;;7.28;100.00;99455.28;10462799;28;20042;-81
2023/12/26 05:47:20;;;;;;;2.63;0.70;;;;;;;7.23;100.00;99462.81;10460125;28;20043;-81
2023/12/26 05:52:24;;;;;;;2.58;0.90;;;;;;;7.41;100.00;99471.16;10473709;28;20130;-81
2023/12/26 05:57:28;;;;;;;0.65;0.50;;;;;;;7.18;100.00;99481.03;10467509;28;20037;-80
2023/12/26 06:02:31;;;;;;;3.42;0.68;;;;;;;6.97;100.00;99493.47;10449123;28;20073;-80
2023/12/26 06:07:34;;;;;;;5.28;0.88;;;;;;;7.01;100.00;99510.94;10461639;28;20040;-80
2023/12/26 06:12:39;;;;;;;5.25;0.63;;;;;;;7.32;100.00;99533.34;10478324;28;20052;-80
2023/12/26 06:17:42;;;;;;;6.50;1.02;;;;;;;6.94;100.00;99518.59;10476844;28;20041;-81
2023/12/26 06:22:49;;;;;;;4.78;0.80;;;;;;;7.37;100.00;99551.69;10485521;28;20049;-80
2023/12/26 06:27:54;;;;;;;4.47;1.00;;;;;;;7.30;100.00;99543.31;10458924;28;20075;-81
2023/12/26 06:32:57;;;;;;;3.25;0.77;;;;;;;7.13;100.00;99558.03;10442772;28;20040;-82
2023/12/26 06:38:01;;;;;;;5.55;1.13;;;;;;;7.32;100.00;99580.59;10433401;28;20049;-82
2023/12/26 06:43:06;;;;;;;8.23;1.08;;;;;;;7.60;100.00;99584.56;10455962;28;20040;-81
2023/12/26 06:48:09;;;;;;;4.57;1.30;;;;;;;7.64;100.00;99602.88;10461787;28;20479;-82
2023/12/26 06:53:12;;;;;;;5.18;1.58;;;;;;;7.53;100.00;99592.22;10445280;28;20725;-79
2023/12/26 06:58:17;;;;;;;2.83;1.02;;;;;;;7.55;100.00;99606.31;10460903;28;20076;-81
2023/12/26 07:03:21;;;;;;;4.22;0.93;;;;;;;7.53;100.00;99623.44;10447422;28;20049;-80
2023/12/26 07:08:24;;;;;;;2.65;0.50;;;;;;;7.05;100.00;99632.56;10453754;28;20477;-81
2023/12/26 07:13:29;;;;;;;3.38;0.85;;;;;;;7.24;100.00;99639.97;10466325;28;20044;-81
2023/12/26 07:18:32;;;;;;;5.72;1.00;;;;;;;7.20;100.00;99646.53;10481509;28;20053;-80
2023/12/26 07:23:35;;;;;;;8.15;1.00;;;;;;;7.07;100.00;99676.00;10456283;28;20058;-80
2023/12/26 07:28:39;;;;;;;3.85;0.63;;;;;;;6.68;100.00;99680.75;10473601;28;20044;-80
2023/12/26 07:33:42;;;;;;;4.55;0.95;;;;;;;7.10;100.00;99709.63;10449470;28;20048;-80
2023/12/26 07:38:46;;;;;;;3.20;1.15;;;;;;;6.69;100.00;99730.50;10465996;28;20075;-79
2023/12/26 07:43:51;;;;;;;4.32;0.50;;;;;;;6.35;100.00;99741.00;10470602;28;20049;-82
2023/12/26 07:48:54;;;;;;;4.55;0.70;;;;;;;6.78;100.00;99732.47;10476027;28;20033;-80
2023/12/26 07:53:59;;;;;;;5.22;1.00;;;;;;;6.90;100.00;99729.88;10470444;28;20052;-79
2023/12/26 07:59:04;;;;;;;1.20;0.43;;;;;;;6.74;100.00;99746.16;10470149;28;20036;-82
2023/12/26 08:04:07;;;;;;;4.78;0.82;;;;;;;6.85;100.00;99788.91;10488776;28;20041;-82
2023/12/26 08:09:11;;;;;;;3.45;0.80;;;;;;;6.67;100.00;99764.47;10479554;28;20037;-81
2023/12/26 08:14:17;;;;;;;5.13;0.93;;;;;;;6.73;100.00;99768.50;10456303;28;20044;-79
2023/12/26 08:19:21;;;;;;;6.13;1.05;;;;;;;6.87;100.00;99779.00;10485105;28;20064;-80
2023/12/26 08:24:24;;;;;;;3.85;0.68;;;;;;;6.79;100.00;99800.06;10479037;28;20083;-80
2023/12/26 08:29:29;;;;;;;6.47;1.33;;;;;;;6.98;100.00;99810.25;10457326;28;20041;-82
2023/12/26 08:34:32;;;;;;;5.13;0.80;;;;;;;6.53;100.00;99821.53;10465889;28;20037;-82
2023/12/26 08:39:35;;;;;;;6.80;1.10;;;;;;;7.10;100.00;99832.50;10484760;28;20125;-79
2023/12/26 08:44:39;;;;;;;7.20;0.95;;;;;;;6.54;100.00;99843.72;10446574;28;20041;-80
2023/12/26 08:49:43;;;;;;;8.73;1.30;;;;;;;6.79;100.00;99856.97;10491135;28;20040;-80
2023/12/26 08:54:46;;;;;;;5.13;0.98;;;;;;;6.75;100.00;99882.19;10480355;28;20075;-81
2023/12/26 08:59:50;;;;;;;6.63;1.30;;;;;;;6.50;100.00;99888.47;10462686;28;20071;-81
2023/12/26 09:04:54;;;;;;;3.78;1.08;;;;;;;6.98;99.34;99893.03;10470632;28;20048;-82
2023/12/26 09:09:57;;;;;;;9.95;1.13;;;;;;;6.78;97.84;99892.63;10490834;28;20060;-78
2023/12/26 09:15:01;;;;;;;4.13;1.05;;;;;;;6.65;98.27;99904.31;10496997;28;20040;-81
2023/12/26 09:20:05;;;;;;;13.80;1.10;;;;;;;6.89;96.85;99920.41;10491614;28;20056;-82
2023/12/26 09:25:08;;;;;;;5.85;1.05;;;;;;;6.89;94.96;99931.94;10482560;28;20098;-81
2023/12/26 09:30:13;;;;;;;9.02;1.45;;;;;;;7.26;94.79;99947.91;10473285;28;20071;-79
2023/12/26 09:35:17;;;;;;;8.93;1.23;;;;;;;7.62;92.90;99955.00;10491801;28;20041;-82
2023/12/26 09:40:20;;;;;;;8.82;1.25;;;;;;;7.25;95.04;99963.09;10482179;28;20033;-82
2023/12/26 09:45:26;;;;;;;11.15;1.10;;;;;;;7.28;96.28;99967.38;10478520;28;20053;-82
2023/12/26 09:50:30;;;;;;;6.50;1.60;;;;;;;7.54;95.56;99977.94;10484879;28;20045;-80
2023/12/26 09:55:33;;;;;;;9.07;1.48;;;;;;;7.27;95.45;99974.53;10481416;28;20055;-82
2023/12/26 10:00:38;;;;;;;9.60;1.25;;;;;;;7.64;93.56;99982.47;10489134;28;20047;-81
2023/12/26 10:05:41;;;;;;;9.60;1.27;;;;;;;7.21;94.67;99982.13;10485874;28;20048;-83
2023/12/26 10:10:45;;;;;;;9.18;1.50;;;;;;;7.50;92.76;99982.66;10485863;28;20488;-82
2023/12/26 10:15:49;;;;;;;4.75;1.00;;;;;;;7.14;94.68;100011.13;10484188;28;20049;-81
2023/12/26 10:20:55;;;;;;;9.13;1.42;;;;;;;7.49;93.78;100003.19;10490505;28;20041;-80
2023/12/26 10:25:58;;;;;;;9.85;1.38;;;;;;;7.66;93.52;100015.28;10473721;28;20052;-81
2023/12/26 10:31:10;;;;;;;5.32;1.13;;;;;;;7.40;93.44;100017.22;10481488;28;20044;-83
2023/12/26 10:36:14;;;;;;;7.20;1.33;;;;;;;7.84;92.05;100031.75;10492657;28;20043;-81
2023/12/26 10:41:23;;;;;;;8.50;1.30;;;;;;;7.36;93.20;100025.59;10472575;28;20104;-82
2023/12/26 10:46:29;;;;;;;3.40;1.20;;;;;;;7.35;89.76;100015.84;10477063;28;20041;-82
2023/12/26 10:51:33;;;;;;;6.55;1.13;;;;;;;7.25;90.16;100037.91;10495532;28;20020;-79
2023/12/26 10:56:37;;;;;;;6.28;1.42;;;;;;;7.67;89.50;100041.06;10503135;28;20032;-80
2023/12/26 13:51:28;;;;;;;7.60;1.30;;;;;;;7.73;79.00;100187.66;10478685;28;20032;-81
2023/12/26 13:56:32;;;;;;;9.02;1.88;;;;;;;7.64;79.14;100187.47;10487519;28;20071;-81
2023/12/26 14:01:35;;;;;;;14.98;1.50;;;;;;;7.49;79.94;100190.28;10453837;28;20136;-81
2023/12/26 14:06:40;;;;;;;3.08;1.00;;;;;;;7.42;80.30;100198.84;10465536;28;20570;-81
2023/12/26 14:11:43;;;;;;;8.63;2.22;;;;;;;7.65;79.76;100208.75;10486037;28;20049;-82
2023/12/26 14:16:46;;;;;;;11.65;1.38;;;;;;;7.44;82.11;100221.81;10438296;28;20041;-82
2023/12/26 14:21:51;;;;;;;10.73;1.65;;;;;;;7.47;81.72;100226.94;10478283;28;20051;-78
2023/12/26 14:26:55;;;;;;;7.63;1.67;;;;;;;7.56;82.15;100227.25;10455609;28;20048;-80
2023/12/26 14:31:58;;;;;;;8.15;1.70;;;;;;;7.18;82.95;100228.97;10476844;28;20071;-81
2023/12/26 14:37:03;;;;;;;12.98;2.10;;;;;;;7.38;82.69;100253.47;10442408;28;20466;-80
2023/12/26 14:42:06;;;;;;;10.77;1.90;;;;;;;7.08;85.89;100276.00;10464627;28;20075;-80
2023/12/26 14:47:09;;;;;;;9.55;1.98;;;;;;;6.76;91.39;100286.13;10463485;28;20044;-79
2023/12/26 14:52:14;;;;;;;10.57;1.70;;;;;;;6.58;93.71;100275.75;10472129;28;20055;-80
2023/12/26 14:57:17;;;;;;;7.70;2.65;;;;;;;7.07;91.58;100290.28;10452467;28;20053;-80
2023/12/26 15:02:22;;;;;;;8.88;2.25;;;;;;;6.89;92.24;100297.75;10468956;28;20044;-79
2023/12/26 15:07:26;;;;;;;20.17;3.97;;;;;;;7.05;89.08;100305.59;10453775;28;20144;-80
2023/12/26 15:12:29;;;;;;;14.98;5.15;;;;;;;7.26;87.31;100321.97;10440150;28;20041;-80
2023/12/26 15:17:33;;;;;;;17.67;5.90;;;;;;;7.09;86.75;100314.25;10482842;28;20044;-81
2023/12/26 15:22:37;;;;;;;6.10;2.17;;;;;;;6.91;87.07;100325.22;10508106;28;20062;-80
2023/12/26 15:27:40;;;;;;;6.35;2.28;;;;;;;7.18;84.64;100337.66;10491432;28;20594;-82
2023/12/26 15:32:43;;;;;;;8.82;2.33;;;;;;;7.02;82.34;100329.81;10451250;28;20538;-81
2023/12/26 15:37:48;;;;;;;8.68;3.72;;;;;;;7.19;81.86;100345.56;10470803;28;20045;-81
2023/12/26 15:42:51;;;;;;;10.18;3.90;;;;;;;7.05;82.65;100357.19;10473750;28;20056;-81
2023/12/26 15:47:55;;;;;;;10.15;4.60;;;;;;;7.15;81.45;100369.91;10447533;28;20071;-81
2023/12/26 15:53:00;;;;;;;11.20;2.42;;;;;;;6.98;81.82;100369.22;10471710;28;20056;-79
2023/12/26 15:58:03;;;;;;;9.32;2.40;;;;;;;7.18;80.18;100391.94;10504078;28;20064;-80
2023/12/26 16:03:06;;;;;;;11.15;2.20;;;;;;;7.05;80.85;100388.41;10465025;28;20083;-81
2023/12/26 16:08:11;;;;;;;8.57;1.83;;;;;;;7.28;79.65;100393.03;10453126;28;20053;-81
2023/12/26 16:13:16;;;;;;;4.93;1.10;;;;;;;6.83;80.45;100400.44;10445981;28;20418;-81
2023/12/26 16:18:19;;;;;;;7.15;1.02;;;;;;;6.82;79.61;100427.22;10461995;28;20109;-81
2023/12/26 16:23:23;;;;;;;10.13;2.10;;;;;;;7.26;78.50;100402.13;10466951;28;20060;-81
2023/12/26 16:28:27;;;;;;;97.07;39.40;;;;;;;7.08;78.55;100406.88;10462352;28;20045;-82
2023/12/26 16:33:31;;;;;;;4.78;1.88;;;;;;;7.10;78.73;100418.31;10470541;28;20049;-82
2023/12/26 16:38:36;;;;;;;7.07;1.25;;;;;;;6.82;78.98;100428.09;10449995;28;20052;-79
2023/12/26 16:43:39;;;;;;;8.38;1.00;;;;;;;6.94;78.34;100429.16;10426602;28;20072;-81
2023/12/26 16:48:42;;;;;;;3.13;1.00;;;;;;;6.90;78.22;100445.47;10465675;28;20032;-81
2023/12/26 16:53:48;;;;;;;6.97;2.00;;;;;;;7.64;75.79;100460.16;10470630;28;20048;-81
2023/12/26 16:58:51;;;;;;;8.73;1.35;;;;;;;7.17;75.41;100480.22;10475043;28;20051;-80
2023/12/26 17:03:54;;;;;;;12.75;6.03;;;;;;;7.23;75.22;100480.66;10481452;28;20675;-80
2023/12/26 17:08:59;;;;;;;9.20;1.98;;;;;;;7.17;75.64;100483.75;10481080;28;20385;-80
2023/12/26 17:14:03;;;;;;;10.02;2.42;;;;;;;7.43;74.79;100489.19;10462011;28;20049;-81
2023/12/26 17:19:06;;;;;;;7.55;1.52;;;;;;;7.01;76.14;100512.41;10456092;28;20496;-82
2023/12/26 17:24:12;;;;;;;8.27;1.60;;;;;;;6.99;77.71;100522.31;10470649;28;20099;-80
2023/12/26 17:29:15;;;;;;;8.65;2.63;;;;;;;7.05;77.06;100524.63;10478685;28;20049;-79
2023/12/26 17:34:18;;;;;;;8.02;1.90;;;;;;;6.94;79.00;100540.44;10472073;28;20048;-80
2023/12/26 17:39:23;;;;;;;7.35;1.73;;;;;;;7.14;78.53;100545.38;10471020;28;20049;-80
2023/12/26 17:44:26;;;;;;;8.43;1.42;;;;;;;7.04;79.98;100578.97;10462449;28;20071;-80
2023/12/26 17:49:29;;;;;;;4.22;1.50;;;;;;;6.87;79.73;100579.16;10453396;28;20408;-80
2023/12/26 17:54:34;;;;;;;4.13;1.45;;;;;;;6.96;77.65;100589.28;10452661;28;20660;-80
2023/12/26 17:59:37;;;;;;;4.88;2.38;;;;;;;6.73;79.10;100614.72;10481255;28;20037;-80
2023/12/26 18:04:40;;;;;;;6.82;3.80;;;;;;;6.59;80.24;100618.22;10450711;28;20140;-80
2023/12/26 18:09:44;;;;;;;4.82;1.10;;;;;;;6.38;80.44;100637.25;10474644;28;20042;-79
2023/12/26 18:14:47;;;;;;;4.07;0.75;;;;;;;6.43;78.84;100636.97;10482036;28;20045;-79
2023/12/26 18:19:54;;;;;;;5.97;3.13;;;;;;;6.17;79.87;100662.50;10460586;28;20451;-80
2023/12/26 18:24:58;;;;;;;4.57;1.83;;;;;;;6.25;79.42;100662.91;10457249;28;20417;-80
2023/12/26 18:30:02;;;;;;;6.50;1.23;;;;;;;5.99;80.66;100663.59;10465961;28;20060;-80
2023/12/26 18:35:06;;;;;;;5.60;1.63;;;;;;;5.94;80.94;100678.03;10454020;28;20079;-80
2023/12/26 18:40:13;;;;;;;4.90;1.70;;;;;;;5.64;82.42;100685.09;10460148;28;20121;-82
2023/12/26 18:45:17;;;;;;;4.05;0.82;;;;;;;5.67;82.20;100690.25;10467068;28;20052;-80
2023/12/26 18:50:21;;;;;;;5.78;0.73;;;;;;;5.69;82.29;100688.38;10493207;28;20056;-81
2023/12/26 18:55:25;;;;;;;5.10;2.40;;;;;;;5.71;82.21;100711.34;10459699;28;20475;-81
2023/12/26 19:00:28;;;;;;;5.18;2.67;;;;;;;5.80;81.82;100719.75;10471984;28;20049;-80
2023/12/26 19:05:32;;;;;;;14.57;4.40;;;;;;;5.36;80.29;100717.75;10488029;28;20048;-83
2023/12/26 19:10:36;;;;;;;10.32;7.65;;;;;;;5.78;80.93;100719.84;10485555;28;20071;-81
2023/12/26 19:15:39;;;;;;;14.88;10.65;;;;;;;5.64;80.61;100735.75;10483722;28;20036;-83
2023/12/26 19:20:45;;;;;;;20.52;13.82;;;;;;;5.48;82.01;100735.72;10477094;28;20036;-81
2023/12/26 19:25:53;;;;;;;10.82;4.10;;;;;;;5.42;80.57;100744.03;10460002;28;20121;-79
2023/12/26 19:30:56;;;;;;;10.10;3.00;;;;;;;5.68;79.51;100746.16;10466049;28;20049;-82
2023/12/26 19:35:59;;;;;;;4.18;1.10;;;;;;;5.49;81.24;100751.63;10482484;28;20045;-80
2023/12/26 19:41:04;;;;;;;10.18;2.72;;;;;;;4.83;83.67;100776.34;10437958;28;20052;-80
2023/12/26 19:46:10;;;;;;;10.25;2.10;;;;;;;5.32;82.25;100775.66;10449007;28;20049;-82
2023/12/26 19:51:14;;;;;;;8.13;2.10;;;;;;;5.17;83.08;100781.78;10456929;28;20079;-82
2023/12/26 19:56:18;;;;;;;9.65;1.80;;;;;;;5.23;82.69;100787.63;10457102;28;20098;-82
2023/12/26 20:01:21;;;;;;;7.20;2.13;;;;;;;5.46;82.48;100788.25;10460147;28;20056;-82
2023/12/26 20:06:24;;;;;;;7.60;1.10;;;;;;;4.65;86.31;100800.38;10436646;28;20044;-82
2023/12/26 20:11:29;;;;;;;10.30;1.35;;;;;;;5.12;84.55;100799.78;10455924;28;20491;-82
2023/12/26 20:16:32;;;;;;;11.85;2.40;;;;;;;4.64;86.25;100809.31;10467173;28;20060;-82
2023/12/26 20:21:37;;;;;;;6.88;1.15;;;;;;;5.13;83.98;100817.47;10472886;28;20481;-81
2023/12/26 20:26:45;;;;;;;7.45;0.90;;;;;;;4.82;85.68;100827.84;10458611;28;20061;-82
2023/12/26 20:31:50;;;;;;;8.07;1.17;;;;;;;4.87;84.90;100830.28;10503040;28;20064;-83
2023/12/26 20:36:54;;;;;;;13.07;10.23;;;;;;;4.59;87.53;100841.47;10478469;28;20623;-84
2023/12/26 20:41:58;;;;;;;14.70;7.25;;;;;;;4.80;86.42;100856.38;10478849;28;20033;-82
2023/12/26 20:47:01;;;;;;;10.55;2.55;;;;;;;4.93;84.96;100859.25;10500093;28;20037;-82
2023/12/26 20:52:07;;;;;;;13.13;6.00;;;;;;;4.92;85.06;100860.22;10517302;28;20047;-82
2023/12/26 20:57:11;;;;;;;18.60;4.10;;;;;;;4.60;85.57;100859.13;10492879;28;20048;-82
2023/12/26 21:02:14;;;;;;;5.70;2.38;;;;;;;4.57;87.14;100868.13;10487570;28;20037;-82
2023/12/26 21:07:18;;;;;;;41.92;20.13;;;;;;;4.64;86.08;100871.38;10491607;28;20056;-82
2023/12/26 21:12:22;;;;;;;11.75;2.17;;;;;;;4.60;86.53;100878.63;10496649;28;20462;-82
2023/12/26 21:17:25;;;;;;;6.75;1.27;;;;;;;4.45;87.98;100879.38;10474717;28;20056;-81
2023/12/26 21:22:28;;;;;;;8.52;2.03;;;;;;;4.35;89.43;100883.41;10484688;28;20636;-79
2023/12/26 21:27:32;;;;;;;10.63;1.80;;;;;;;4.30;90.55;100886.25;10486977;28;20049;-81
2023/12/26 21:32:35;;;;;;;8.80;1.65;;;;;;;4.17;92.37;100899.28;10485090;28;20044;-80
2023/12/26 21:37:38;;;;;;;8.38;1.90;;;;;;;4.17;92.34;100893.09;10496184;28;20052;-80
2023/12/26 21:42:43;;;;;;;11.52;2.63;;;;;;;3.95;95.16;100906.53;10473178;28;20040;-80
2023/12/26 21:47:46;;;;;;;9.02;1.52;;;;;;;4.25;93.96;100916.66;10484863;28;20112;-81
2023/12/26 21:52:49;;;;;;;9.68;1.95;;;;;;;4.37;93.97;100922.28;10489090;28;20044;-81
2023/12/26 21:57:54;;;;;;;7.47;1.73;;;;;;;4.29;94.74;100923.59;10499016;28;20482;-81
2023/12/26 22:02:57;;;;;;;7.68;2.17;;;;;;;4.21;94.57;100923.06;10489564;28;20057;-81
2023/12/26 22:08:00;;;;;;;9.38;2.08;;;;;;;4.26;95.59;100924.59;10488909;28;20498;-81
2023/12/26 22:13:05;;;;;;;7.78;1.77;;;;;;;3.99;97.05;100937.34;10454410;28;20049;-81
2023/12/26 22:18:08;;;;;;;8.63;2.00;;;;;;;4.09;97.21;100959.94;10487898;28;20063;-80
2023/12/26 22:23:11;;;;;;;7.50;1.92;;;;;;;4.00;98.16;100956.81;10476145;28;20037;-81
2023/12/26 22:28:16;;;;;;;11.60;2.20;;;;;;;4.00;99.06;100960.31;10480354;28;20068;-81
2023/12/26 22:33:19;;;;;;;9.13;2.15;;;;;;;4.09;98.94;100962.59;10475014;28;20046;-81
2023/12/26 22:38:22;;;;;;;6.25;2.28;;;;;;;4.06;98.74;100962.72;10478511;28;20072;-81
2023/12/26 22:43:26;;;;;;;11.35;3.10;;;;;;;4.00;100.00;100962.97;10497803;28;20484;-79
2023/12/26 22:48:29;;;;;;;13.20;2.65;;;;;;;4.09;99.82;100973.22;10484988;28;20079;-81
2023/12/26 22:53:41;;;;;;;11.07;3.00;;;;;;;4.08;99.81;100971.47;10485563;28;20037;-81
2023/12/26 22:58:45;;;;;;;10.55;2.33;;;;;;;4.04;100.00;100990.31;10489036;28;20072;-81
2023/12/26 23:03:48;;;;;;;6.95;2.17;;;;;;;4.03;100.00;100996.53;10479295;28;20075;-81
2023/12/26 23:08:51;;;;;;;11.05;2.60;;;;;;;4.02;100.00;100993.03;10470838;28;20091;-80
2023/12/26 23:13:55;;;;;;;10.13;1.88;;;;;;;4.05;100.00;100998.19;10475058;28;20083;-81
2023/12/26 23:18:58;;;;;;;4.28;2.08;;;;;;;4.02;100.00;101010.78;10478557;28;20456;-81
2023/12/26 23:24:01;;;;;;;10.10;2.40;;;;;;;4.00;100.00;101016.16;10456328;28;20049;-81
2023/12/26 23:29:06;;;;;;;6.40;2.08;;;;;;;4.00;100.00;101020.59;10474659;28;20437;-81
2023/12/26 23:34:09;;;;;;;7.32;2.15;;;;;;;3.63;100.00;101003.59;10486089;28;20037;-81
2023/12/26 23:39:12;;;;;;;13.65;2.70;;;;;;;3.73;100.00;100999.63;10482962;28;20481;-81
2023/12/26 23:44:17;;;;;;;12.45;2.00;;;;;;;3.71;100.00;100990.84;10484791;28;20049;-81
2023/12/26 23:49:20;;;;;;;11.13;2.25;;;;;;;3.77;100.00;101008.31;10490875;28;20102;-81
2023/12/26 23:54:23;;;;;;;13.13;2.38;;;;;;;3.66;100.00;101020.25;10495585;28;20587;-81
2023/12/26 23:59:27;;;;;;;11.93;2.38;;;;;;;3.69;100.00;101014.81;10498459;28;20056;-81
